createdAt,value
2017-12-30T00:00:03.644Z,6.28
2017-12-30T00:00:29.745Z,6.28
2017-12-30T00:00:55.850Z,6.28
2017-12-30T00:01:21.944Z,6.28
2017-12-30T00:01:48.062Z,6.28
2017-12-30T00:02:14.166Z,6.3
2017-12-30T00:02:40.269Z,6.38
2017-12-30T00:03:06.366Z,6.27
2017-12-30T00:03:32.465Z,6.38
2017-12-30T00:03:58.571Z,6.3
2017-12-30T00:04:24.667Z,6.3
2017-12-30T00:04:50.774Z,6.38
2017-12-30T00:05:16.891Z,6.46
2017-12-30T00:05:42.999Z,6.46
2017-12-30T00:06:09.097Z,6.45
2017-12-30T00:06:35.194Z,6.42
2017-12-30T00:07:01.297Z,6.46
2017-12-30T00:07:27.397Z,6.31
2017-12-30T00:07:53.513Z,6.45
2017-12-30T00:08:19.667Z,6.41
2017-12-30T00:08:45.712Z,6.27
2017-12-30T00:09:11.816Z,6.31
2017-12-30T00:09:37.917Z,6.41
2017-12-30T00:10:04.018Z,6.31
2017-12-30T00:10:30.134Z,6.36
2017-12-30T00:10:56.245Z,6.45
2017-12-30T00:11:22.344Z,6.41
2017-12-30T00:11:48.443Z,6.41
2017-12-30T00:12:14.550Z,6.42
2017-12-30T00:12:40.645Z,6.3
2017-12-30T00:13:06.759Z,6.36
2017-12-30T00:13:32.846Z,6.3
2017-12-30T00:13:58.962Z,6.35
2017-12-30T00:14:25.072Z,6.31
2017-12-30T00:14:51.174Z,6.38
2017-12-30T00:15:17.270Z,6.36
2017-12-30T00:15:43.367Z,6.27
2017-12-30T00:16:09.467Z,6.31
2017-12-30T00:16:35.567Z,6.35
2017-12-30T00:17:01.665Z,6.49
2017-12-30T00:17:27.785Z,6.33
2017-12-30T00:17:53.886Z,6.35
2017-12-30T00:18:19.986Z,6.39
2017-12-30T00:18:46.084Z,6.54
2017-12-30T00:19:12.186Z,6.54
2017-12-30T00:19:38.284Z,6.6
2017-12-30T00:20:04.393Z,6.6
2017-12-30T00:20:30.495Z,6.6
2017-12-30T00:20:56.596Z,6.59
2017-12-30T00:21:22.688Z,6.49
2017-12-30T00:21:48.793Z,6.54
2017-12-30T00:22:14.892Z,6.59
2017-12-30T00:22:40.991Z,6.54
2017-12-30T00:23:07.102Z,6.48
2017-12-30T00:23:33.198Z,6.49
2017-12-30T00:23:59.297Z,6.42
2017-12-30T00:24:25.400Z,6.42
2017-12-30T00:24:51.497Z,6.44
2017-12-30T00:25:17.601Z,6.42
2017-12-30T00:25:43.699Z,6.41
2017-12-30T00:26:09.802Z,6.44
2017-12-30T00:26:35.897Z,6.51
2017-12-30T00:27:01.998Z,6.49
2017-12-30T00:27:28.101Z,6.49
2017-12-30T00:27:54.200Z,6.63
2017-12-30T00:28:20.306Z,6.62
2017-12-30T00:28:46.403Z,6.56
2017-12-30T00:29:12.508Z,6.48
2017-12-30T00:29:38.608Z,6.46
2017-12-30T00:30:04.706Z,6.51
2017-12-30T00:30:30.809Z,6.54
2017-12-30T00:30:56.906Z,6.51
2017-12-30T00:31:23.010Z,6.46
2017-12-30T00:31:49.110Z,6.49
2017-12-30T00:32:15.204Z,6.57
2017-12-30T00:32:41.310Z,6.59
2017-12-30T00:33:07.412Z,6.51
2017-12-30T00:33:33.513Z,6.49
2017-12-30T00:33:59.630Z,6.48
2017-12-30T00:34:25.734Z,6.48
2017-12-30T00:34:51.852Z,6.49
2017-12-30T00:35:17.946Z,6.48
2017-12-30T00:35:44.048Z,6.42
2017-12-30T00:36:10.151Z,6.51
2017-12-30T00:36:36.253Z,6.52
2017-12-30T00:37:02.352Z,6.64
2017-12-30T00:37:28.447Z,6.62
2017-12-30T00:37:54.546Z,6.59
2017-12-30T00:38:20.646Z,6.64
2017-12-30T00:38:46.747Z,6.64
2017-12-30T00:39:12.844Z,6.62
2017-12-30T00:39:38.947Z,6.57
2017-12-30T00:40:05.047Z,6.62
2017-12-30T00:40:31.144Z,6.56
2017-12-30T00:40:57.297Z,6.63
2017-12-30T00:41:23.373Z,6.59
2017-12-30T00:41:49.490Z,6.56
2017-12-30T00:42:15.590Z,6.74
2017-12-30T00:42:41.707Z,6.72
2017-12-30T00:43:07.810Z,6.69
2017-12-30T00:43:33.912Z,6.57
2017-12-30T00:44:00.013Z,6.56
2017-12-30T00:44:26.128Z,6.72
2017-12-30T00:44:52.242Z,6.56
2017-12-30T00:45:18.348Z,6.62
2017-12-30T00:45:44.447Z,6.56
2017-12-30T00:46:10.550Z,6.6
2017-12-30T00:46:36.662Z,6.6
2017-12-30T00:47:02.766Z,6.56
2017-12-30T00:47:28.858Z,6.6
2017-12-30T00:47:54.966Z,6.62
2017-12-30T00:48:21.064Z,6.59
2017-12-30T00:48:47.165Z,6.54
2017-12-30T00:49:13.280Z,6.67
2017-12-30T00:49:39.383Z,6.66
2017-12-30T00:50:05.480Z,6.72
2017-12-30T00:50:31.580Z,6.62
2017-12-30T00:50:57.685Z,6.64
2017-12-30T00:51:23.784Z,6.66
2017-12-30T00:51:49.886Z,6.67
2017-12-30T00:52:15.993Z,6.56
2017-12-30T00:52:42.088Z,6.62
2017-12-30T00:53:08.186Z,6.77
2017-12-30T00:53:34.293Z,6.67
2017-12-30T00:54:00.396Z,6.6
2017-12-30T00:54:26.492Z,6.67
2017-12-30T00:54:52.597Z,6.69
2017-12-30T00:55:18.693Z,6.7
2017-12-30T00:55:44.793Z,6.74
2017-12-30T00:56:10.918Z,6.63
2017-12-30T00:56:37.028Z,6.54
2017-12-30T00:57:03.135Z,6.7
2017-12-30T00:57:29.237Z,6.72
2017-12-30T00:57:55.358Z,6.64
2017-12-30T00:58:21.458Z,6.69
2017-12-30T00:58:47.555Z,6.66
2017-12-30T00:59:13.650Z,6.74
2017-12-30T00:59:39.747Z,6.59
2017-12-30T01:00:05.846Z,6.72
2017-12-30T01:00:31.962Z,6.67
2017-12-30T01:00:58.053Z,6.62
2017-12-30T01:01:24.161Z,6.64
2017-12-30T01:01:50.252Z,6.75
2017-12-30T01:02:16.363Z,6.74
2017-12-30T01:02:42.462Z,6.74
2017-12-30T01:03:08.556Z,6.6
2017-12-30T01:03:34.664Z,6.66
2017-12-30T01:04:00.774Z,6.72
2017-12-30T01:04:26.881Z,6.59
2017-12-30T01:04:53.000Z,6.7
2017-12-30T01:05:19.101Z,6.59
2017-12-30T01:05:45.193Z,6.67
2017-12-30T01:06:11.297Z,6.74
2017-12-30T01:06:37.404Z,6.75
2017-12-30T01:07:03.494Z,6.75
2017-12-30T01:07:29.597Z,6.74
2017-12-30T01:07:55.698Z,6.78
2017-12-30T01:08:21.792Z,6.77
2017-12-30T01:08:47.897Z,6.7
2017-12-30T01:09:13.997Z,6.72
2017-12-30T01:09:40.092Z,6.6
2017-12-30T01:10:06.195Z,6.74
2017-12-30T01:10:32.292Z,6.74
2017-12-30T01:10:58.397Z,6.56
2017-12-30T01:11:24.499Z,6.66
2017-12-30T01:11:50.598Z,6.72
2017-12-30T01:12:16.720Z,6.74
2017-12-30T01:12:42.814Z,6.6
2017-12-30T01:13:08.913Z,6.6
2017-12-30T01:13:35.016Z,6.62
2017-12-30T01:14:01.115Z,6.57
2017-12-30T01:14:27.222Z,6.75
2017-12-30T01:14:53.318Z,6.72
2017-12-30T01:15:19.423Z,6.74
2017-12-30T01:15:45.526Z,6.67
2017-12-30T01:16:11.624Z,6.66
2017-12-30T01:16:37.734Z,6.6
2017-12-30T01:17:03.836Z,6.6
2017-12-30T01:17:29.936Z,6.75
2017-12-30T01:17:56.034Z,6.66
2017-12-30T01:18:22.139Z,6.59
2017-12-30T01:18:48.236Z,6.59
2017-12-30T01:19:14.342Z,6.56
2017-12-30T01:19:40.447Z,6.59
2017-12-30T01:20:06.546Z,6.6
2017-12-30T01:20:32.650Z,6.57
2017-12-30T01:20:58.748Z,6.6
2017-12-30T01:21:24.853Z,6.6
2017-12-30T01:21:50.970Z,6.69
2017-12-30T01:22:17.067Z,6.66
2017-12-30T01:22:43.170Z,6.63
2017-12-30T01:23:09.266Z,6.66
2017-12-30T01:23:35.363Z,6.66
2017-12-30T01:24:01.479Z,6.72
2017-12-30T01:24:27.611Z,6.69
2017-12-30T01:24:53.702Z,6.75
2017-12-30T01:25:19.800Z,6.54
2017-12-30T01:25:45.907Z,6.69
2017-12-30T01:26:12.022Z,6.78
2017-12-30T01:26:38.127Z,6.67
2017-12-30T01:27:04.230Z,6.74
2017-12-30T01:27:30.340Z,6.69
2017-12-30T01:27:56.447Z,6.69
2017-12-30T01:28:22.544Z,6.64
2017-12-30T01:28:48.646Z,6.74
2017-12-30T01:29:14.745Z,6.69
2017-12-30T01:29:40.843Z,6.59
2017-12-30T01:30:06.946Z,6.72
2017-12-30T01:30:33.051Z,6.72
2017-12-30T01:30:59.196Z,6.72
2017-12-30T01:31:25.251Z,6.57
2017-12-30T01:31:51.346Z,6.72
2017-12-30T01:32:17.452Z,6.63
2017-12-30T01:32:43.548Z,6.59
2017-12-30T01:33:09.652Z,6.69
2017-12-30T01:33:35.765Z,6.77
2017-12-30T01:34:01.867Z,6.72
2017-12-30T01:34:27.972Z,6.81
2017-12-30T01:34:54.071Z,6.77
2017-12-30T01:35:20.175Z,6.74
2017-12-30T01:35:46.268Z,6.72
2017-12-30T01:36:12.372Z,6.6
2017-12-30T01:36:38.699Z,6.75
2017-12-30T01:37:04.794Z,6.77
2017-12-30T01:37:30.899Z,6.72
2017-12-30T01:37:56.990Z,6.74
2017-12-30T01:38:23.094Z,6.74
2017-12-30T01:38:49.196Z,6.72
2017-12-30T01:39:15.294Z,6.7
2017-12-30T01:39:41.395Z,6.6
2017-12-30T01:40:07.498Z,6.63
2017-12-30T01:40:33.601Z,6.54
2017-12-30T01:40:59.705Z,6.57
2017-12-30T01:41:25.818Z,6.64
2017-12-30T01:41:51.921Z,6.7
2017-12-30T01:42:18.020Z,6.77
2017-12-30T01:42:44.139Z,6.75
2017-12-30T01:43:10.240Z,6.74
2017-12-30T01:43:36.338Z,6.74
2017-12-30T01:44:02.459Z,6.57
2017-12-30T01:44:28.562Z,6.6
2017-12-30T01:44:54.659Z,6.7
2017-12-30T01:45:20.764Z,6.66
2017-12-30T01:45:46.861Z,6.74
2017-12-30T01:46:12.958Z,6.67
2017-12-30T01:46:39.062Z,6.6
2017-12-30T01:47:05.163Z,6.69
2017-12-30T01:47:31.265Z,6.7
2017-12-30T01:47:57.383Z,6.74
2017-12-30T01:48:23.478Z,6.67
2017-12-30T01:48:49.576Z,6.6
2017-12-30T01:49:15.700Z,6.59
2017-12-30T01:49:41.803Z,6.75
2017-12-30T01:50:07.902Z,6.54
2017-12-30T01:50:34.005Z,6.75
2017-12-30T01:51:00.101Z,6.74
2017-12-30T01:51:26.204Z,6.74
2017-12-30T01:51:52.321Z,6.7
2017-12-30T01:52:18.424Z,6.62
2017-12-30T01:52:44.525Z,6.66
2017-12-30T01:53:10.630Z,6.6
2017-12-30T01:53:36.739Z,6.75
2017-12-30T01:54:02.842Z,6.57
2017-12-30T01:54:28.934Z,6.7
2017-12-30T01:54:55.030Z,6.72
2017-12-30T01:55:21.132Z,6.77
2017-12-30T01:55:47.233Z,6.54
2017-12-30T01:56:13.334Z,6.67
2017-12-30T01:56:39.440Z,6.72
2017-12-30T01:57:05.534Z,6.66
2017-12-30T01:57:31.637Z,6.63
2017-12-30T01:57:57.742Z,6.63
2017-12-30T01:58:23.840Z,6.74
2017-12-30T01:58:49.941Z,6.69
2017-12-30T01:59:16.043Z,6.66
2017-12-30T01:59:42.137Z,6.69
2017-12-30T02:00:08.239Z,6.6
2017-12-30T02:00:34.341Z,6.64
2017-12-30T02:01:00.439Z,6.77
2017-12-30T02:01:26.533Z,6.74
2017-12-30T02:01:52.633Z,6.57
2017-12-30T02:02:18.732Z,6.57
2017-12-30T02:02:44.834Z,6.69
2017-12-30T02:03:10.974Z,6.64
2017-12-30T02:03:37.070Z,6.6
2017-12-30T02:04:03.171Z,6.72
2017-12-30T02:04:29.278Z,6.6
2017-12-30T02:04:55.390Z,6.63
2017-12-30T02:05:21.489Z,6.7
2017-12-30T02:05:47.607Z,6.7
2017-12-30T02:06:13.708Z,6.7
2017-12-30T02:06:39.812Z,6.64
2017-12-30T02:07:05.928Z,6.64
2017-12-30T02:07:32.026Z,6.72
2017-12-30T02:07:58.122Z,6.63
2017-12-30T02:08:24.239Z,6.57
2017-12-30T02:08:50.341Z,6.72
2017-12-30T02:09:16.436Z,6.6
2017-12-30T02:09:42.534Z,6.62
2017-12-30T02:10:08.636Z,6.63
2017-12-30T02:10:34.730Z,6.6
2017-12-30T02:11:00.833Z,6.64
2017-12-30T02:11:26.938Z,6.74
2017-12-30T02:11:53.038Z,6.59
2017-12-30T02:12:19.138Z,6.57
2017-12-30T02:12:45.234Z,6.56
2017-12-30T02:13:11.337Z,6.72
2017-12-30T02:13:37.441Z,6.6
2017-12-30T02:14:03.547Z,6.62
2017-12-30T02:14:29.643Z,6.57
2017-12-30T02:14:55.740Z,6.67
2017-12-30T02:15:21.843Z,6.57
2017-12-30T02:15:47.943Z,6.77
2017-12-30T02:16:14.049Z,6.75
2017-12-30T02:16:40.150Z,6.59
2017-12-30T02:17:06.248Z,6.57
2017-12-30T02:17:32.354Z,6.72
2017-12-30T02:17:58.451Z,6.63
2017-12-30T02:18:24.550Z,6.74
2017-12-30T02:18:50.657Z,6.67
2017-12-30T02:19:16.755Z,6.74
2017-12-30T02:19:42.877Z,6.69
2017-12-30T02:20:08.977Z,6.63
2017-12-30T02:20:35.100Z,6.66
2017-12-30T02:21:01.197Z,6.59
2017-12-30T02:21:27.334Z,6.67
2017-12-30T02:21:53.396Z,6.72
2017-12-30T02:22:19.500Z,6.72
2017-12-30T02:22:45.605Z,6.79
2017-12-30T02:23:11.701Z,6.72
2017-12-30T02:23:37.798Z,6.59
2017-12-30T02:24:03.900Z,6.57
2017-12-30T02:24:30.002Z,6.77
2017-12-30T02:24:56.100Z,6.63
2017-12-30T02:25:22.205Z,6.6
2017-12-30T02:25:48.306Z,6.67
2017-12-30T02:26:14.410Z,6.74
2017-12-30T02:26:40.523Z,6.75
2017-12-30T02:27:06.622Z,6.72
2017-12-30T02:27:32.737Z,6.64
2017-12-30T02:27:58.845Z,6.7
2017-12-30T02:28:24.934Z,6.7
2017-12-30T02:28:51.032Z,6.67
2017-12-30T02:29:17.127Z,6.66
2017-12-30T02:29:43.244Z,6.64
2017-12-30T02:30:09.354Z,6.74
2017-12-30T02:30:35.454Z,6.75
2017-12-30T02:31:01.554Z,6.72
2017-12-30T02:31:27.656Z,6.75
2017-12-30T02:31:53.762Z,6.82
2017-12-30T02:32:19.865Z,6.75
2017-12-30T02:32:45.961Z,6.74
2017-12-30T02:33:12.096Z,6.69
2017-12-30T02:33:38.158Z,6.72
2017-12-30T02:34:04.265Z,6.63
2017-12-30T02:34:30.359Z,6.7
2017-12-30T02:34:56.460Z,6.72
2017-12-30T02:35:22.586Z,6.59
2017-12-30T02:35:48.681Z,6.7
2017-12-30T02:36:14.785Z,6.57
2017-12-30T02:36:40.907Z,6.63
2017-12-30T02:37:07.003Z,6.74
2017-12-30T02:37:33.099Z,6.74
2017-12-30T02:37:59.199Z,6.72
2017-12-30T02:38:25.304Z,6.67
2017-12-30T02:38:51.400Z,6.69
2017-12-30T02:39:17.506Z,6.84
2017-12-30T02:39:43.606Z,6.72
2017-12-30T02:40:09.702Z,6.63
2017-12-30T02:40:35.810Z,6.64
2017-12-30T02:41:01.905Z,6.7
2017-12-30T02:41:28.010Z,6.82
2017-12-30T02:41:54.113Z,6.7
2017-12-30T02:42:20.226Z,6.75
2017-12-30T02:42:46.332Z,6.69
2017-12-30T02:43:12.430Z,6.67
2017-12-30T02:43:38.542Z,6.64
2017-12-30T02:44:04.649Z,6.69
2017-12-30T02:44:30.746Z,6.7
2017-12-30T02:44:56.863Z,6.77
2017-12-30T02:45:22.966Z,6.7
2017-12-30T02:45:49.066Z,6.77
2017-12-30T02:46:15.186Z,6.69
2017-12-30T02:46:41.281Z,6.74
2017-12-30T02:47:07.386Z,6.72
2017-12-30T02:47:33.488Z,6.67
2017-12-30T02:47:59.578Z,6.57
2017-12-30T02:48:25.682Z,6.75
2017-12-30T02:48:51.786Z,6.59
2017-12-30T02:49:17.885Z,6.59
2017-12-30T02:49:43.989Z,6.72
2017-12-30T02:50:10.094Z,6.54
2017-12-30T02:50:36.197Z,6.69
2017-12-30T02:51:02.298Z,6.6
2017-12-30T02:51:28.395Z,6.74
2017-12-30T02:51:54.503Z,6.72
2017-12-30T02:52:20.614Z,6.79
2017-12-30T02:52:46.712Z,6.75
2017-12-30T02:53:12.811Z,6.64
2017-12-30T02:53:38.909Z,6.6
2017-12-30T02:54:05.014Z,6.6
2017-12-30T02:54:31.110Z,6.62
2017-12-30T02:54:57.211Z,6.62
2017-12-30T02:55:23.308Z,6.63
2017-12-30T02:55:49.412Z,6.56
2017-12-30T02:56:15.527Z,6.66
2017-12-30T02:56:41.625Z,6.54
2017-12-30T02:57:07.732Z,6.66
2017-12-30T02:57:33.833Z,6.7
2017-12-30T02:57:59.930Z,6.67
2017-12-30T02:58:26.030Z,6.62
2017-12-30T02:58:52.135Z,6.6
2017-12-30T02:59:18.238Z,6.52
2017-12-30T02:59:44.332Z,6.48
2017-12-30T03:00:10.435Z,6.42
2017-12-30T03:00:36.532Z,6.41
2017-12-30T03:01:02.628Z,6.52
2017-12-30T03:01:28.728Z,6.49
2017-12-30T03:01:54.833Z,6.51
2017-12-30T03:02:20.928Z,6.62
2017-12-30T03:02:47.040Z,6.57
2017-12-30T03:03:13.145Z,6.49
2017-12-30T03:03:39.244Z,6.54
2017-12-30T03:04:05.350Z,6.48
2017-12-30T03:04:31.460Z,6.48
2017-12-30T03:04:57.564Z,6.56
2017-12-30T03:05:23.662Z,6.51
2017-12-30T03:05:49.764Z,6.44
2017-12-30T03:06:15.861Z,6.49
2017-12-30T03:06:41.965Z,6.48
2017-12-30T03:07:08.071Z,6.54
2017-12-30T03:07:34.163Z,6.49
2017-12-30T03:08:00.266Z,6.45
2017-12-30T03:08:26.362Z,6.44
2017-12-30T03:08:52.460Z,6.48
2017-12-30T03:09:18.565Z,6.51
2017-12-30T03:09:44.662Z,6.51
2017-12-30T03:10:10.760Z,6.49
2017-12-30T03:10:36.876Z,6.45
2017-12-30T03:11:02.999Z,6.48
2017-12-30T03:11:29.099Z,6.42
2017-12-30T03:11:55.211Z,6.46
2017-12-30T03:12:21.311Z,6.49
2017-12-30T03:12:47.409Z,6.44
2017-12-30T03:13:13.511Z,6.57
2017-12-30T03:13:39.604Z,6.44
2017-12-30T03:14:05.706Z,6.45
2017-12-30T03:14:31.805Z,6.46
2017-12-30T03:14:57.902Z,6.44
2017-12-30T03:15:24.000Z,6.41
2017-12-30T03:15:50.115Z,6.46
2017-12-30T03:16:16.210Z,6.35
2017-12-30T03:16:42.307Z,6.42
2017-12-30T03:17:08.420Z,6.3
2017-12-30T03:17:34.545Z,6.35
2017-12-30T03:18:00.642Z,6.31
2017-12-30T03:18:26.742Z,6.27
2017-12-30T03:18:52.854Z,6.27
2017-12-30T03:19:18.951Z,6.28
2017-12-30T03:19:45.057Z,6.2
2017-12-30T03:20:11.151Z,6.27
2017-12-30T03:20:37.255Z,6.2
2017-12-30T03:21:03.356Z,6.24
2017-12-30T03:21:29.455Z,6.2
2017-12-30T03:21:55.557Z,6.24
2017-12-30T03:22:21.654Z,6.33
2017-12-30T03:22:47.754Z,6.26
2017-12-30T03:23:13.859Z,6.27
2017-12-30T03:23:39.958Z,6.3
2017-12-30T03:24:06.064Z,6.26
2017-12-30T03:24:32.170Z,6.3
2017-12-30T03:24:58.277Z,6.26
2017-12-30T03:25:24.400Z,6.38
2017-12-30T03:25:50.497Z,6.31
2017-12-30T03:26:16.600Z,6.3
2017-12-30T03:26:42.697Z,6.3
2017-12-30T03:27:08.801Z,6.3
2017-12-30T03:27:34.899Z,6.27
2017-12-30T03:28:01.000Z,6.17
2017-12-30T03:28:27.104Z,6.14
2017-12-30T03:28:53.204Z,6.09
2017-12-30T03:29:19.305Z,6.16
2017-12-30T03:29:45.400Z,6.22
2017-12-30T03:30:11.508Z,6.2
2017-12-30T03:30:37.603Z,6.27
2017-12-30T03:31:03.709Z,6.27
2017-12-30T03:31:29.813Z,6.17
2017-12-30T03:31:55.906Z,6.11
2017-12-30T03:32:22.007Z,6.19
2017-12-30T03:32:48.106Z,6.19
2017-12-30T03:33:14.206Z,6.2
2017-12-30T03:33:40.310Z,6.28
2017-12-30T03:34:06.423Z,6.24
2017-12-30T03:34:32.529Z,6.2
2017-12-30T03:34:58.623Z,6.2
2017-12-30T03:35:24.725Z,6.09
2017-12-30T03:35:50.820Z,6.12
2017-12-30T03:36:16.924Z,6.07
2017-12-30T03:36:43.031Z,6.19
2017-12-30T03:37:09.125Z,6.16
2017-12-30T03:37:35.226Z,6.11
2017-12-30T03:38:01.327Z,6.09
2017-12-30T03:38:27.427Z,6.05
2017-12-30T03:38:53.527Z,6.12
2017-12-30T03:39:19.627Z,6.09
2017-12-30T03:39:45.723Z,6.08
2017-12-30T03:40:11.820Z,6.11
2017-12-30T03:40:37.938Z,6.05
2017-12-30T03:41:04.037Z,6.05
2017-12-30T03:41:30.131Z,6.04
2017-12-30T03:41:56.237Z,6.11
2017-12-30T03:42:22.338Z,6.04
2017-12-30T03:42:48.440Z,6.14
2017-12-30T03:43:14.545Z,6.19
2017-12-30T03:43:40.666Z,6.14
2017-12-30T03:44:06.761Z,6.08
2017-12-30T03:44:32.865Z,6.16
2017-12-30T03:44:58.960Z,6.24
2017-12-30T03:45:25.060Z,6.16
2017-12-30T03:45:51.163Z,6.26
2017-12-30T03:46:17.256Z,6.26
2017-12-30T03:46:43.364Z,6.2
2017-12-30T03:47:09.465Z,6.14
2017-12-30T03:47:35.561Z,6.2
2017-12-30T03:48:01.680Z,6.19
2017-12-30T03:48:27.777Z,6.14
2017-12-30T03:48:53.882Z,6.28
2017-12-30T03:49:19.982Z,6.33
2017-12-30T03:49:46.086Z,6.16
2017-12-30T03:50:12.180Z,6.17
2017-12-30T03:50:38.279Z,6.27
2017-12-30T03:51:04.386Z,6.22
2017-12-30T03:51:30.500Z,6.17
2017-12-30T03:51:56.605Z,6.17
2017-12-30T03:52:22.706Z,6.22
2017-12-30T03:52:48.802Z,6.07
2017-12-30T03:53:14.907Z,6.11
2017-12-30T03:53:41.006Z,6.09
2017-12-30T03:54:07.104Z,6.08
2017-12-30T03:54:33.207Z,6.04
2017-12-30T03:54:59.305Z,6.08
2017-12-30T03:55:25.401Z,6.14
2017-12-30T03:55:51.507Z,6.09
2017-12-30T03:56:17.607Z,6.07
2017-12-30T03:56:43.704Z,5.93
2017-12-30T03:57:09.803Z,5.87
2017-12-30T03:57:35.909Z,5.87
2017-12-30T03:58:02.006Z,5.83
2017-12-30T03:58:28.108Z,5.9
2017-12-30T03:58:54.209Z,5.89
2017-12-30T03:59:20.312Z,5.9
2017-12-30T03:59:46.413Z,5.9
2017-12-30T04:00:12.502Z,5.98
2017-12-30T04:00:38.603Z,5.98
2017-12-30T04:01:04.699Z,5.97
2017-12-30T04:01:30.808Z,5.89
2017-12-30T04:01:56.928Z,5.98
2017-12-30T04:02:23.024Z,5.94
2017-12-30T04:02:49.120Z,5.87
2017-12-30T04:03:15.229Z,5.83
2017-12-30T04:03:41.330Z,5.82
2017-12-30T04:04:07.433Z,5.8
2017-12-30T04:04:33.531Z,5.82
2017-12-30T04:04:59.625Z,5.89
2017-12-30T04:05:25.726Z,5.93
2017-12-30T04:05:51.832Z,5.87
2017-12-30T04:06:17.948Z,5.83
2017-12-30T04:06:44.046Z,5.84
2017-12-30T04:07:10.144Z,5.73
2017-12-30T04:07:36.238Z,5.82
2017-12-30T04:08:02.341Z,5.76
2017-12-30T04:08:28.433Z,5.66
2017-12-30T04:08:54.540Z,5.73
2017-12-30T04:09:20.639Z,5.69
2017-12-30T04:09:46.733Z,5.71
2017-12-30T04:10:12.842Z,5.62
2017-12-30T04:10:38.936Z,5.66
2017-12-30T04:11:05.043Z,5.71
2017-12-30T04:11:31.141Z,5.73
2017-12-30T04:11:57.246Z,5.69
2017-12-30T04:12:23.398Z,5.64
2017-12-30T04:12:49.492Z,5.71
2017-12-30T04:13:15.612Z,5.69
2017-12-30T04:13:41.707Z,5.65
2017-12-30T04:14:07.806Z,5.66
2017-12-30T04:14:33.909Z,5.71
2017-12-30T04:15:00.015Z,5.75
2017-12-30T04:15:26.124Z,5.66
2017-12-30T04:15:52.225Z,5.62
2017-12-30T04:16:18.324Z,5.61
2017-12-30T04:16:44.460Z,5.66
2017-12-30T04:17:10.564Z,5.69
2017-12-30T04:17:36.665Z,5.68
2017-12-30T04:18:02.769Z,5.66
2017-12-30T04:18:28.866Z,5.59
2017-12-30T04:18:54.969Z,5.66
2017-12-30T04:19:21.067Z,5.65
2017-12-30T04:19:47.172Z,5.53
2017-12-30T04:20:13.261Z,5.57
2017-12-30T04:20:39.362Z,5.56
2017-12-30T04:21:05.467Z,5.61
2017-12-30T04:21:31.571Z,5.65
2017-12-30T04:21:57.707Z,5.57
2017-12-30T04:22:23.803Z,5.54
2017-12-30T04:22:49.906Z,5.57
2017-12-30T04:23:16.006Z,5.56
2017-12-30T04:23:42.100Z,5.64
2017-12-30T04:24:08.202Z,5.64
2017-12-30T04:24:34.313Z,5.64
2017-12-30T04:25:00.403Z,5.66
2017-12-30T04:25:26.501Z,5.66
2017-12-30T04:25:52.602Z,5.69
2017-12-30T04:26:18.694Z,5.69
2017-12-30T04:26:44.800Z,5.64
2017-12-30T04:27:10.926Z,5.66
2017-12-30T04:27:37.022Z,5.68
2017-12-30T04:28:03.121Z,5.65
2017-12-30T04:28:29.228Z,5.65
2017-12-30T04:28:55.323Z,5.79
2017-12-30T04:29:21.425Z,5.73
2017-12-30T04:29:47.524Z,5.66
2017-12-30T04:30:13.619Z,5.65
2017-12-30T04:30:39.721Z,5.62
2017-12-30T04:31:05.824Z,5.72
2017-12-30T04:31:31.922Z,5.75
2017-12-30T04:31:58.039Z,5.76
2017-12-30T04:32:24.141Z,5.82
2017-12-30T04:32:50.237Z,5.66
2017-12-30T04:33:16.342Z,5.66
2017-12-30T04:33:42.436Z,5.69
2017-12-30T04:34:08.539Z,5.71
2017-12-30T04:34:34.637Z,5.8
2017-12-30T04:35:00.732Z,5.75
2017-12-30T04:35:26.834Z,5.79
2017-12-30T04:35:52.939Z,5.75
2017-12-30T04:36:19.034Z,5.72
2017-12-30T04:36:45.141Z,5.79
2017-12-30T04:37:11.243Z,5.79
2017-12-30T04:37:37.339Z,5.69
2017-12-30T04:38:03.441Z,5.73
2017-12-30T04:38:29.545Z,5.68
2017-12-30T04:38:55.658Z,5.79
2017-12-30T04:39:21.761Z,5.69
2017-12-30T04:39:47.851Z,5.68
2017-12-30T04:40:13.958Z,5.65
2017-12-30T04:40:40.069Z,5.66
2017-12-30T04:41:06.172Z,5.72
2017-12-30T04:41:32.270Z,5.72
2017-12-30T04:41:58.369Z,5.82
2017-12-30T04:42:24.466Z,5.79
2017-12-30T04:42:50.569Z,5.73
2017-12-30T04:43:16.673Z,5.84
2017-12-30T04:43:42.771Z,5.93
2017-12-30T04:44:08.869Z,5.9
2017-12-30T04:44:34.969Z,5.91
2017-12-30T04:45:01.070Z,5.86
2017-12-30T04:45:27.166Z,5.99
2017-12-30T04:45:53.262Z,6.04
2017-12-30T04:46:19.359Z,6.05
2017-12-30T04:46:45.474Z,5.97
2017-12-30T04:47:11.571Z,5.84
2017-12-30T04:47:37.668Z,6.04
2017-12-30T04:48:03.768Z,5.94
2017-12-30T04:48:29.873Z,5.97
2017-12-30T04:48:55.969Z,5.98
2017-12-30T04:49:22.079Z,6.04
2017-12-30T04:49:48.176Z,5.94
2017-12-30T04:50:14.275Z,5.94
2017-12-30T04:50:40.374Z,5.9
2017-12-30T04:51:06.480Z,5.93
2017-12-30T04:51:32.593Z,5.93
2017-12-30T04:51:58.715Z,5.91
2017-12-30T04:52:24.820Z,5.98
2017-12-30T04:52:50.916Z,6.04
2017-12-30T04:53:17.018Z,6.08
2017-12-30T04:53:43.112Z,6.05
2017-12-30T04:54:09.210Z,6.07
2017-12-30T04:54:35.312Z,6.01
2017-12-30T04:55:01.408Z,5.98
2017-12-30T04:55:27.513Z,6.02
2017-12-30T04:55:53.609Z,6.08
2017-12-30T04:56:19.713Z,6.07
2017-12-30T04:56:45.814Z,5.99
2017-12-30T04:57:11.909Z,5.94
2017-12-30T04:57:38.029Z,6.04
2017-12-30T04:58:04.125Z,6.11
2017-12-30T04:58:30.229Z,6.12
2017-12-30T04:58:56.325Z,6.2
2017-12-30T04:59:22.444Z,6.14
2017-12-30T04:59:48.545Z,6.17
2017-12-30T05:00:14.648Z,6.19
2017-12-30T05:00:40.753Z,6.07
2017-12-30T05:01:06.850Z,6.14
2017-12-30T05:01:32.955Z,6.17
2017-12-30T05:01:59.054Z,6.19
2017-12-30T05:02:25.151Z,6.14
2017-12-30T05:02:51.248Z,6.19
2017-12-30T05:03:17.354Z,6.17
2017-12-30T05:03:43.454Z,6.11
2017-12-30T05:04:09.550Z,6.09
2017-12-30T05:04:35.670Z,6.07
2017-12-30T05:05:01.769Z,6.05
2017-12-30T05:05:27.872Z,6.04
2017-12-30T05:05:53.966Z,6.11
2017-12-30T05:06:20.067Z,6.04
2017-12-30T05:06:46.169Z,6.09
2017-12-30T05:07:12.267Z,6.11
2017-12-30T05:07:38.372Z,6.09
2017-12-30T05:08:04.467Z,6.09
2017-12-30T05:08:30.570Z,6.01
2017-12-30T05:08:56.678Z,6.04
2017-12-30T05:09:22.789Z,5.99
2017-12-30T05:09:48.891Z,6.07
2017-12-30T05:10:14.990Z,6.05
2017-12-30T05:10:41.091Z,6.04
2017-12-30T05:11:07.187Z,5.99
2017-12-30T05:11:33.292Z,5.97
2017-12-30T05:11:59.386Z,6.02
2017-12-30T05:12:25.488Z,5.93
2017-12-30T05:12:51.587Z,6.02
2017-12-30T05:13:17.684Z,5.98
2017-12-30T05:13:43.785Z,5.99
2017-12-30T05:14:09.889Z,6.02
2017-12-30T05:14:35.990Z,5.98
2017-12-30T05:15:02.095Z,5.9
2017-12-30T05:15:28.188Z,5.97
2017-12-30T05:15:54.293Z,6.01
2017-12-30T05:16:20.390Z,5.97
2017-12-30T05:16:46.492Z,6.02
2017-12-30T05:17:12.590Z,5.99
2017-12-30T05:17:38.689Z,6.01
2017-12-30T05:18:04.796Z,6.04
2017-12-30T05:18:30.895Z,6.02
2017-12-30T05:18:57.001Z,5.97
2017-12-30T05:19:23.097Z,5.98
2017-12-30T05:19:49.206Z,6.04
2017-12-30T05:20:15.302Z,6.05
2017-12-30T05:20:41.400Z,6.11
2017-12-30T05:21:07.504Z,6.07
2017-12-30T05:21:33.602Z,6.11
2017-12-30T05:21:59.705Z,6.07
2017-12-30T05:22:25.802Z,5.93
2017-12-30T05:22:51.898Z,5.99
2017-12-30T05:23:17.993Z,5.93
2017-12-30T05:23:44.096Z,5.84
2017-12-30T05:24:10.193Z,5.98
2017-12-30T05:24:36.295Z,5.89
2017-12-30T05:25:02.396Z,5.87
2017-12-30T05:25:28.493Z,5.93
2017-12-30T05:25:54.594Z,5.84
2017-12-30T05:26:20.708Z,5.91
2017-12-30T05:26:46.816Z,5.89
2017-12-30T05:27:12.913Z,5.9
2017-12-30T05:27:39.037Z,5.91
2017-12-30T05:28:05.160Z,5.99
2017-12-30T05:28:31.254Z,5.93
2017-12-30T05:28:57.355Z,5.93
2017-12-30T05:29:23.458Z,5.93
2017-12-30T05:29:49.554Z,5.87
2017-12-30T05:30:15.693Z,5.86
2017-12-30T05:30:41.798Z,5.9
2017-12-30T05:31:07.893Z,5.87
2017-12-30T05:31:33.993Z,5.89
2017-12-30T05:32:00.108Z,5.93
2017-12-30T05:32:26.212Z,5.9
2017-12-30T05:32:52.306Z,5.86
2017-12-30T05:33:18.415Z,5.99
2017-12-30T05:33:44.544Z,5.99
2017-12-30T05:34:10.640Z,5.91
2017-12-30T05:34:36.743Z,5.83
2017-12-30T05:35:02.846Z,5.83
2017-12-30T05:35:28.947Z,5.93
2017-12-30T05:35:55.047Z,6.05
2017-12-30T05:36:21.145Z,6.04
2017-12-30T05:36:47.279Z,5.99
2017-12-30T05:37:13.358Z,6.02
2017-12-30T05:37:39.458Z,5.93
2017-12-30T05:38:05.560Z,5.91
2017-12-30T05:38:31.657Z,5.97
2017-12-30T05:38:57.761Z,5.93
2017-12-30T05:39:23.860Z,5.9
2017-12-30T05:39:49.961Z,5.94
2017-12-30T05:40:16.058Z,5.99
2017-12-30T05:40:42.176Z,6.02
2017-12-30T05:41:08.283Z,6.04
2017-12-30T05:41:34.379Z,5.94
2017-12-30T05:42:00.484Z,5.94
2017-12-30T05:42:26.585Z,5.89
2017-12-30T05:42:52.696Z,5.8
2017-12-30T05:43:18.802Z,5.83
2017-12-30T05:43:44.901Z,5.8
2017-12-30T05:44:11.001Z,5.75
2017-12-30T05:44:37.101Z,5.8
2017-12-30T05:45:03.208Z,5.89
2017-12-30T05:45:29.326Z,5.93
2017-12-30T05:45:55.421Z,5.94
2017-12-30T05:46:21.519Z,5.86
2017-12-30T05:46:47.623Z,5.84
2017-12-30T05:47:13.716Z,5.75
2017-12-30T05:47:39.816Z,5.76
2017-12-30T05:48:05.915Z,5.89
2017-12-30T05:48:32.017Z,5.98